sensor_id;sensor_type;location;lat;lon;timestamp;pressure;altitude;pressure_sealevel;temperature;humidity
75036;BME280;64247;51.540;5.854;2022-12-07T00:00:35;101484.69;;;2.91;100.00
75036;BME280;64247;51.540;5.854;2022-12-07T00:02:36;101480.69;;;2.88;100.00
75036;BME280;64247;51.540;5.854;2022-12-07T00:04:37;101483.91;;;2.90;100.00
75036;BME280;64247;51.540;5.854;2022-12-07T00:06:40;101490.84;;;2.91;100.00
75036;BME280;64247;51.540;5.854;2022-12-07T00:08:43;101487.91;;;2.93;100.00
75036;BME280;64247;51.540;5.854;2022-12-07T00:10:44;101488.44;;;2.95;100.00
75036;BME280;64247;51.540;5.854;2022-12-07T00:12:44;101485.19;;;2.98;100.00
75036;BME280;64247;51.540;5.854;2022-12-07T00:14:46;101478.22;;;3.02;100.00
75036;BME280;64247;51.540;5.854;2022-12-07T00:16:49;101487.34;;;3.01;100.00
75036;BME280;64247;51.540;5.854;2022-12-07T00:18:51;101486.28;;;3.02;100.00
75036;BME280;64247;51.540;5.854;2022-12-07T00:20:52;101484.13;;;2.99;100.00
75036;BME280;64247;51.540;5.854;2022-12-07T00:22:53;101480.09;;;3.01;100.00
75036;BME280;64247;51.540;5.854;2022-12-07T00:24:54;101478.47;;;3.00;100.00
75036;BME280;64247;51.540;5.854;2022-12-07T00:26:54;101473.91;;;3.06;100.00
75036;BME280;64247;51.540;5.854;2022-12-07T00:28:58;101476.06;;;3.09;100.00
75036;BME280;64247;51.540;5.854;2022-12-07T00:31:14;101465.03;;;3.11;100.00
75036;BME280;64247;51.540;5.854;2022-12-07T00:33:16;101467.72;;;3.11;100.00
75036;BME280;64247;51.540;5.854;2022-12-07T00:35:17;101459.97;;;3.09;100.00
75036;BME280;64247;51.540;5.854;2022-12-07T00:37:17;101465.31;;;3.09;100.00
75036;BME280;64247;51.540;5.854;2022-12-07T00:39:18;101458.09;;;3.05;100.00
75036;BME280;64247;51.540;5.854;2022-12-07T00:41:21;101461.28;;;3.07;100.00
75036;BME280;64247;51.540;5.854;2022-12-07T00:43:23;101450.84;;;3.05;100.00
75036;BME280;64247;51.540;5.854;2022-12-07T00:45:25;101450.03;;;2.99;100.00
75036;BME280;64247;51.540;5.854;2022-12-07T00:47:25;101465.63;;;2.97;100.00
75036;BME280;64247;51.540;5.854;2022-12-07T00:49:26;101453.81;;;2.93;100.00
75036;BME280;64247;51.540;5.854;2022-12-07T00:51:27;101468.59;;;2.91;100.00
75036;BME280;64247;51.540;5.854;2022-12-07T00:53:28;101464.88;;;2.87;100.00
75036;BME280;64247;51.540;5.854;2022-12-07T00:55:33;101467.00;;;2.84;100.00
75036;BME280;64247;51.540;5.854;2022-12-07T00:57:34;101463.50;;;2.84;100.00
75036;BME280;64247;51.540;5.854;2022-12-07T00:59:35;101459.50;;;2.81;100.00
75036;BME280;64247;51.540;5.854;2022-12-07T01:01:36;101452.03;;;2.78;100.00
75036;BME280;64247;51.540;5.854;2022-12-07T01:03:38;101452.84;;;2.74;100.00
75036;BME280;64247;51.540;5.854;2022-12-07T01:05:39;101447.72;;;2.72;100.00
75036;BME280;64247;51.540;5.854;2022-12-07T01:07:48;101448.00;;;2.71;100.00
75036;BME280;64247;51.540;5.854;2022-12-07T01:09:49;101453.91;;;2.73;100.00
75036;BME280;64247;51.540;5.854;2022-12-07T01:11:50;101447.19;;;2.75;100.00
75036;BME280;64247;51.540;5.854;2022-12-07T01:13:52;101457.09;;;2.80;100.00
75036;BME280;64247;51.540;5.854;2022-12-07T01:15:57;101456.28;;;2.84;100.00
75036;BME280;64247;51.540;5.854;2022-12-07T01:18:00;101458.94;;;2.90;100.00
75036;BME280;64247;51.540;5.854;2022-12-07T01:20:01;101460.00;;;2.94;100.00
75036;BME280;64247;51.540;5.854;2022-12-07T01:22:02;101455.41;;;2.99;100.00
75036;BME280;64247;51.540;5.854;2022-12-07T01:24:03;101459.13;;;3.09;100.00
75036;BME280;64247;51.540;5.854;2022-12-07T01:26:10;101458.31;;;3.13;100.00
75036;BME280;64247;51.540;5.854;2022-12-07T01:28:12;101467.69;;;3.16;100.00
75036;BME280;64247;51.540;5.854;2022-12-07T01:30:13;101460.19;;;3.18;100.00
75036;BME280;64247;51.540;5.854;2022-12-07T01:32:14;101461.22;;;3.22;100.00
75036;BME280;64247;51.540;5.854;2022-12-07T01:34:15;101471.41;;;3.25;100.00
75036;BME280;64247;51.540;5.854;2022-12-07T01:36:22;101454.53;;;3.25;100.00
75036;BME280;64247;51.540;5.854;2022-12-07T01:38:34;101458.00;;;3.25;100.00
75036;BME280;64247;51.540;5.854;2022-12-07T01:40:35;101449.69;;;3.22;100.00
75036;BME280;64247;51.540;5.854;2022-12-07T01:42:35;101449.16;;;3.20;100.00
75036;BME280;64247;51.540;5.854;2022-12-07T01:47:33;101453.25;;;3.07;100.00
75036;BME280;64247;51.540;5.854;2022-12-07T01:54:30;101465.63;;;2.92;100.00
75036;BME280;64247;51.540;5.854;2022-12-07T01:56:33;101465.63;;;2.92;100.00
75036;BME280;64247;51.540;5.854;2022-12-07T01:58:34;101458.94;;;2.90;100.00
75036;BME280;64247;51.540;5.854;2022-12-07T02:00:36;101452.53;;;2.85;100.00
75036;BME280;64247;51.540;5.854;2022-12-07T02:02:43;101463.50;;;2.84;100.00
75036;BME280;64247;51.540;5.854;2022-12-07T02:05:06;101452.53;;;2.80;100.00
75036;BME280;64247;51.540;5.854;2022-12-07T02:07:07;101450.13;;;2.79;100.00
75036;BME280;64247;51.540;5.854;2022-12-07T02:09:08;101455.50;;;2.79;100.00
75036;BME280;64247;51.540;5.854;2022-12-07T02:11:09;101446.41;;;2.75;100.00
75036;BME280;64247;51.540;5.854;2022-12-07T02:13:14;101451.22;;;2.73;100.00
75036;BME280;64247;51.540;5.854;2022-12-07T02:15:20;101457.13;;;2.75;100.00
75036;BME280;64247;51.540;5.854;2022-12-07T02:17:34;101446.41;;;2.75;100.00
75036;BME280;64247;51.540;5.854;2022-12-07T02:20:23;101447.22;;;2.70;100.00
75036;BME280;64247;51.540;5.854;2022-12-07T02:29:35;101442.91;;;2.69;100.00
75036;BME280;64247;51.540;5.854;2022-12-07T02:32:08;101445.38;;;2.60;100.00
75036;BME280;64247;51.540;5.854;2022-12-07T02:35:04;101449.66;;;2.56;100.00
75036;BME280;64247;51.540;5.854;2022-12-07T02:37:19;101449.66;;;2.56;100.00
75036;BME280;64247;51.540;5.854;2022-12-07T02:39:34;101448.31;;;2.53;100.00
75036;BME280;64247;51.540;5.854;2022-12-07T02:41:52;101451.81;;;2.49;100.00
75036;BME280;64247;51.540;5.854;2022-12-07T02:44:01;101447.53;;;2.43;100.00
75036;BME280;64247;51.540;5.854;2022-12-07T02:46:10;101440.31;;;2.38;100.00
75036;BME280;64247;51.540;5.854;2022-12-07T02:48:16;101444.59;;;2.34;100.00
75036;BME280;64247;51.540;5.854;2022-12-07T02:50:22;101447.56;;;2.27;100.00
75036;BME280;64247;51.540;5.854;2022-12-07T02:52:23;101448.34;;;2.22;100.00
75036;BME280;64247;51.540;5.854;2022-12-07T02:54:24;101439.78;;;2.15;100.00
75036;BME280;64247;51.540;5.854;2022-12-07T02:58:32;101454.78;;;2.16;100.00
75036;BME280;64247;51.540;5.854;2022-12-07T03:08:15;101443.53;;;1.99;100.00
75036;BME280;64247;51.540;5.854;2022-12-07T03:11:05;101449.16;;;1.92;100.00
75036;BME280;64247;51.540;5.854;2022-12-07T03:16:14;101449.16;;;1.82;100.00
75036;BME280;64247;51.540;5.854;2022-12-07T03:18:25;101441.91;;;1.82;100.00
75036;BME280;64247;51.540;5.854;2022-12-07T03:20:31;101447.03;;;1.84;100.00
75036;BME280;64247;51.540;5.854;2022-12-07T03:22:38;101449.44;;;1.85;100.00
75036;BME280;64247;51.540;5.854;2022-12-07T03:24:52;101448.63;;;1.85;100.00
75036;BME280;64247;51.540;5.854;2022-12-07T03:27:16;101452.66;;;1.87;100.00
75036;BME280;64247;51.540;5.854;2022-12-07T03:30:10;101451.56;;;1.99;100.00
75036;BME280;64247;51.540;5.854;2022-12-07T03:32:43;101444.34;;;2.04;100.00
75036;BME280;64247;51.540;5.854;2022-12-07T03:42:55;101440.84;;;2.40;100.00
75036;BME280;64247;51.540;5.854;2022-12-07T03:45:02;101446.19;;;2.45;100.00
75036;BME280;64247;51.540;5.854;2022-12-07T03:51:22;101438.16;;;2.45;100.00
75036;BME280;64247;51.540;5.854;2022-12-07T03:53:40;101434.41;;;2.41;100.00
75036;BME280;64247;51.540;5.854;2022-12-07T03:55:49;101442.72;;;2.34;100.00
75036;BME280;64247;51.540;5.854;2022-12-07T03:57:55;101445.41;;;2.34;100.00
75036;BME280;64247;51.540;5.854;2022-12-07T04:00:08;101435.50;;;2.30;100.00
75036;BME280;64247;51.540;5.854;2022-12-07T04:02:14;101437.38;;;2.29;100.00
75036;BME280;64247;51.540;5.854;2022-12-07T04:04:17;101428.53;;;2.29;100.00
75036;BME280;64247;51.540;5.854;2022-12-07T04:06:18;101426.41;;;2.26;100.00
75036;BME280;64247;51.540;5.854;2022-12-07T04:08:18;101430.16;;;2.25;100.00
75036;BME280;64247;51.540;5.854;2022-12-07T04:10:19;101436.03;;;2.27;100.00
75036;BME280;64247;51.540;5.854;2022-12-07T04:12:22;101427.97;;;2.27;100.00
75036;BME280;64247;51.540;5.854;2022-12-07T04:14:23;101430.94;;;2.25;100.00
75036;BME280;64247;51.540;5.854;2022-12-07T04:16:23;101433.34;;;2.27;100.00
75036;BME280;64247;51.540;5.854;2022-12-07T04:18:24;101437.09;;;2.36;100.00
75036;BME280;64247;51.540;5.854;2022-12-07T04:20:25;101433.59;;;2.41;100.00
75036;BME280;64247;51.540;5.854;2022-12-07T04:22:26;101444.31;;;2.46;100.00
75036;BME280;64247;51.540;5.854;2022-12-07T04:24:27;101441.91;;;2.44;100.00
75036;BME280;64247;51.540;5.854;2022-12-07T04:26:28;101436.78;;;2.48;100.00
75036;BME280;64247;51.540;5.854;2022-12-07T04:28:29;101438.94;;;2.51;100.00
75036;BME280;64247;51.540;5.854;2022-12-07T04:30:30;101437.88;;;2.52;100.00
75036;BME280;64247;51.540;5.854;2022-12-07T04:32:31;101426.06;;;2.53;100.00
75036;BME280;64247;51.540;5.854;2022-12-07T04:34:34;101432.50;;;2.57;100.00
75036;BME280;64247;51.540;5.854;2022-12-07T04:36:35;101431.41;;;2.63;100.00
75036;BME280;64247;51.540;5.854;2022-12-07T04:38:36;101425.50;;;2.66;100.00
75036;BME280;64247;51.540;5.854;2022-12-07T04:40:37;101420.94;;;2.67;100.00
75036;BME280;64247;51.540;5.854;2022-12-07T04:42:38;101420.41;;;2.65;100.00
75036;BME280;64247;51.540;5.854;2022-12-07T04:44:41;101417.72;;;2.65;100.00
75036;BME280;64247;51.540;5.854;2022-12-07T04:46:42;101422.03;;;2.61;100.00
75036;BME280;64247;51.540;5.854;2022-12-07T04:48:43;101423.63;;;2.62;100.00
75036;BME280;64247;51.540;5.854;2022-12-07T04:50:44;101419.59;;;2.64;100.00
75036;BME280;64247;51.540;5.854;2022-12-07T04:52:50;101429.25;;;2.65;100.00
75036;BME280;64247;51.540;5.854;2022-12-07T04:54:50;101428.97;;;2.67;100.00
75036;BME280;64247;51.540;5.854;2022-12-07T04:56:51;101427.38;;;2.71;100.00
75036;BME280;64247;51.540;5.854;2022-12-07T04:58:53;101428.97;;;2.77;100.00
75036;BME280;64247;51.540;5.854;2022-12-07T05:00:55;101427.56;;;2.85;100.00
75036;BME280;64247;51.540;5.854;2022-12-07T05:02:56;101428.38;;;2.91;100.00
75036;BME280;64247;51.540;5.854;2022-12-07T05:04:56;101428.09;;;2.92;100.00
75036;BME280;64247;51.540;5.854;2022-12-07T05:06:57;101415.22;;;2.94;100.00
75036;BME280;64247;51.540;5.854;2022-12-07T05:08:58;101413.91;;;2.87;100.00
75036;BME280;64247;51.540;5.854;2022-12-07T05:10:59;101416.34;;;2.83;100.00
75036;BME280;64247;51.540;5.854;2022-12-07T05:13:01;101419.00;;;2.88;100.00
75036;BME280;64247;51.540;5.854;2022-12-07T05:15:02;101423.00;;;2.91;100.00
75036;BME280;64247;51.540;5.854;2022-12-07T05:17:03;101418.72;;;2.90;100.00
75036;BME280;64247;51.540;5.854;2022-12-07T05:19:05;101419.00;;;2.88;100.00
75036;BME280;64247;51.540;5.854;2022-12-07T05:21:06;101426.22;;;2.88;100.00
75036;BME280;64247;51.540;5.854;2022-12-07T05:23:07;101419.81;;;2.83;100.00
75036;BME280;64247;51.540;5.854;2022-12-07T05:25:08;101410.72;;;2.74;100.00
75036;BME280;64247;51.540;5.854;2022-12-07T05:27:09;101419.34;;;2.71;100.00
75036;BME280;64247;51.540;5.854;2022-12-07T05:29:11;101420.69;;;2.63;100.00
75036;BME280;64247;51.540;5.854;2022-12-07T05:31:13;101409.72;;;2.49;100.00
75036;BME280;64247;51.540;5.854;2022-12-07T05:33:14;101411.63;;;2.33;100.00
75036;BME280;64247;51.540;5.854;2022-12-07T05:35:15;101409.53;;;2.20;100.00
75036;BME280;64247;51.540;5.854;2022-12-07T05:37:16;101418.38;;;2.15;100.00
75036;BME280;64247;51.540;5.854;2022-12-07T05:39:17;101417.28;;;2.11;100.00
75036;BME280;64247;51.540;5.854;2022-12-07T05:41:18;101429.34;;;2.09;100.00
75036;BME280;64247;51.540;5.854;2022-12-07T05:43:38;101422.13;;;2.09;100.00
75036;BME280;64247;51.540;5.854;2022-12-07T05:45:39;101419.69;;;2.08;100.00
75036;BME280;64247;51.540;5.854;2022-12-07T05:47:39;101426.13;;;2.01;100.00
75036;BME280;64247;51.540;5.854;2022-12-07T05:49:40;101416.47;;;2.00;100.00
75036;BME280;64247;51.540;5.854;2022-12-07T05:51:44;101417.28;;;1.96;100.00
75036;BME280;64247;51.540;5.854;2022-12-07T05:53:45;101422.09;;;1.88;100.00
75036;BME280;64247;51.540;5.854;2022-12-07T05:55:46;101416.47;;;1.85;100.00
75036;BME280;64247;51.540;5.854;2022-12-07T05:57:46;101416.47;;;1.85;100.00
75036;BME280;64247;51.540;5.854;2022-12-07T06:00:06;101406.59;;;1.85;100.00
75036;BME280;64247;51.540;5.854;2022-12-07T06:02:27;101411.13;;;1.85;100.00
75036;BME280;64247;51.540;5.854;2022-12-07T06:04:29;101416.47;;;1.85;100.00
75036;BME280;64247;51.540;5.854;2022-12-07T06:06:32;101415.41;;;1.86;100.00
75036;BME280;64247;51.540;5.854;2022-12-07T06:08:33;101405.25;;;1.88;100.00
75036;BME280;64247;51.540;5.854;2022-12-07T06:10:34;101406.59;;;1.90;100.00
75036;BME280;64247;51.540;5.854;2022-12-07T06:12:34;101404.16;;;1.99;100.00
75036;BME280;64247;51.540;5.854;2022-12-07T06:14:36;101406.34;;;1.97;100.00
75036;BME280;64247;51.540;5.854;2022-12-07T06:16:37;101405.00;;;1.95;100.00
75036;BME280;64247;51.540;5.854;2022-12-07T06:18:37;101404.19;;;1.94;100.00
75036;BME280;64247;51.540;5.854;2022-12-07T06:20:38;101405.78;;;1.90;100.00
75036;BME280;64247;51.540;5.854;2022-12-07T06:22:39;101406.59;;;1.85;100.00
75036;BME280;64247;51.540;5.854;2022-12-07T06:24:40;101414.91;;;1.84;100.00
75036;BME280;64247;51.540;5.854;2022-12-07T06:26:41;101405.78;;;1.80;100.00
75036;BME280;64247;51.540;5.854;2022-12-07T06:28:42;101402.56;;;1.78;100.00
75036;BME280;64247;51.540;5.854;2022-12-07T06:30:43;101411.66;;;1.77;100.00
75036;BME280;64247;51.540;5.854;2022-12-07T06:32:43;101406.59;;;1.75;100.00
75036;BME280;64247;51.540;5.854;2022-12-07T06:34:44;101413.81;;;1.74;100.00
75036;BME280;64247;51.540;5.854;2022-12-07T06:36:47;101405.78;;;1.74;100.00
75036;BME280;64247;51.540;5.854;2022-12-07T06:38:52;101409.00;;;1.71;100.00
75036;BME280;64247;51.540;5.854;2022-12-07T06:40:53;101414.34;;;1.71;100.00
75036;BME280;64247;51.540;5.854;2022-12-07T06:42:55;101411.41;;;1.73;100.00
75036;BME280;64247;51.540;5.854;2022-12-07T06:44:55;101416.75;;;1.73;100.00
75036;BME280;64247;51.540;5.854;2022-12-07T06:46:56;101419.69;;;1.71;100.00
75036;BME280;64247;51.540;5.854;2022-12-07T06:48:57;101413.00;;;1.74;100.00
75036;BME280;64247;51.540;5.854;2022-12-07T06:50:58;101415.16;;;1.72;100.00
75036;BME280;64247;51.540;5.854;2022-12-07T06:52:58;101410.88;;;1.71;100.00
75036;BME280;64247;51.540;5.854;2022-12-07T06:54:59;101418.09;;;1.65;100.00
75036;BME280;64247;51.540;5.854;2022-12-07T06:57:00;101417.28;;;1.60;100.00
75036;BME280;64247;51.540;5.854;2022-12-07T06:59:01;101417.00;;;1.56;100.00
75036;BME280;64247;51.540;5.854;2022-12-07T07:01:02;101422.09;;;1.57;100.00
75036;BME280;64247;51.540;5.854;2022-12-07T07:03:09;101413.78;;;1.54;100.00
75036;BME280;64247;51.540;5.854;2022-12-07T07:05:10;101418.06;;;1.55;100.00
75036;BME280;64247;51.540;5.854;2022-12-07T07:07:11;101421.84;;;1.59;100.00
75036;BME280;64247;51.540;5.854;2022-12-07T07:09:12;101418.34;;;1.58;100.00
75036;BME280;64247;51.540;5.854;2022-12-07T07:11:12;101417.56;;;1.53;100.00
75036;BME280;64247;51.540;5.854;2022-12-07T07:13:13;101417.53;;;1.48;100.00
75036;BME280;64247;51.540;5.854;2022-12-07T07:15:14;101425.00;;;1.46;100.00
75036;BME280;64247;51.540;5.854;2022-12-07T07:17:15;101423.66;;;1.43;100.00
75036;BME280;64247;51.540;5.854;2022-12-07T07:19:15;101423.16;;;1.41;100.00
75036;BME280;64247;51.540;5.854;2022-12-07T07:21:16;101418.84;;;1.45;100.00
75036;BME280;64247;51.540;5.854;2022-12-07T07:23:17;101417.53;;;1.48;100.00
75036;BME280;64247;51.540;5.854;2022-12-07T07:25:19;101422.31;;;1.46;100.00
75036;BME280;64247;51.540;5.854;2022-12-07T07:27:20;101427.16;;;1.44;100.00
75036;BME280;64247;51.540;5.854;2022-12-07T07:29:21;101416.19;;;1.40;100.00
75036;BME280;64247;51.540;5.854;2022-12-07T07:31:22;101425.28;;;1.44;100.00
75036;BME280;64247;51.540;5.854;2022-12-07T07:33:23;101426.63;;;1.47;100.00
75036;BME280;64247;51.540;5.854;2022-12-07T07:35:25;101427.16;;;1.44;100.00
75036;BME280;64247;51.540;5.854;2022-12-07T07:37:26;101422.88;;;1.48;100.00
75036;BME280;64247;51.540;5.854;2022-12-07T07:39:27;101421.28;;;1.52;100.00
75036;BME280;64247;51.540;5.854;2022-12-07T07:41:28;101423.41;;;1.50;100.00
75036;BME280;64247;51.540;5.854;2022-12-07T07:43:28;101423.97;;;1.52;100.00
75036;BME280;64247;51.540;5.854;2022-12-07T07:45:29;101429.84;;;1.54;100.00
75036;BME280;64247;51.540;5.854;2022-12-07T07:47:33;101422.91;;;1.53;100.00
75036;BME280;64247;51.540;5.854;2022-12-07T07:49:34;101430.38;;;1.56;100.00
75036;BME280;64247;51.540;5.854;2022-12-07T07:51:35;101421.56;;;1.55;100.00
75036;BME280;64247;51.540;5.854;2022-12-07T07:53:35;101433.06;;;1.56;100.00
75036;BME280;64247;51.540;5.854;2022-12-07T07:55:36;101429.84;;;1.54;100.00
75036;BME280;64247;51.540;5.854;2022-12-07T07:57:38;101437.63;;;1.55;100.00
75036;BME280;64247;51.540;5.854;2022-12-07T07:59:39;101430.66;;;1.54;100.00
75036;BME280;64247;51.540;5.854;2022-12-07T08:01:40;101433.34;;;1.54;100.00
75036;BME280;64247;51.540;5.854;2022-12-07T08:03:41;101428.78;;;1.55;100.00
75036;BME280;64247;51.540;5.854;2022-12-07T08:05:42;101434.66;;;1.57;100.00
75036;BME280;64247;51.540;5.854;2022-12-07T08:07:43;101435.72;;;1.61;100.00
75036;BME280;64247;51.540;5.854;2022-12-07T08:09:44;101443.25;;;1.69;100.00
75036;BME280;64247;51.540;5.854;2022-12-07T08:11:45;101441.66;;;1.73;100.00
75036;BME280;64247;51.540;5.854;2022-12-07T08:13:46;101440.84;;;1.78;100.00
75036;BME280;64247;51.540;5.854;2022-12-07T08:15:47;101440.59;;;1.85;100.00
75036;BME280;64247;51.540;5.854;2022-12-07T08:17:48;101438.16;;;1.88;100.00
75036;BME280;64247;51.540;5.854;2022-12-07T08:19:49;101440.31;;;1.92;100.00
75036;BME280;64247;51.540;5.854;2022-12-07T08:21:50;101448.91;;;1.94;100.00
75036;BME280;64247;51.540;5.854;2022-12-07T08:23:51;101446.22;;;1.99;100.00
75036;BME280;64247;51.540;5.854;2022-12-07T08:25:51;101447.03;;;2.04;100.00
75036;BME280;64247;51.540;5.854;2022-12-07T08:27:52;101443.28;;;2.21;100.00
75036;BME280;64247;51.540;5.854;2022-12-07T08:29:53;101452.34;;;2.46;100.00
75036;BME280;64247;51.540;5.854;2022-12-07T08:31:54;101448.81;;;2.66;100.00
75036;BME280;64247;51.540;5.854;2022-12-07T08:33:55;101443.63;;;2.95;100.00
75036;BME280;64247;51.540;5.854;2022-12-07T08:36:05;101446.47;;;3.20;100.00
75036;BME280;64247;51.540;5.854;2022-12-07T08:38:08;101452.84;;;3.39;100.00
75036;BME280;64247;51.540;5.854;2022-12-07T08:40:10;101442.50;;;3.57;100.00
75036;BME280;64247;51.540;5.854;2022-12-07T08:42:15;101454.06;;;3.57;100.00
75036;BME280;64247;51.540;5.854;2022-12-07T08:44:16;101452.75;;;3.55;100.00
75036;BME280;64247;51.540;5.854;2022-12-07T08:46:38;101453.25;;;3.62;100.00
75036;BME280;64247;51.540;5.854;2022-12-07T08:49:01;101456.19;;;3.60;100.00
75036;BME280;64247;51.540;5.854;2022-12-07T08:51:05;101449.13;;;3.75;100.00
75036;BME280;64247;51.540;5.854;2022-12-07T08:53:07;101452.53;;;4.20;99.46
75036;BME280;64247;51.540;5.854;2022-12-07T08:55:11;101451.00;;;4.09;99.61
75036;BME280;64247;51.540;5.854;2022-12-07T08:57:12;101455.56;;;4.43;98.76
75036;BME280;64247;51.540;5.854;2022-12-07T08:59:14;101437.06;;;5.09;96.59
75036;BME280;64247;51.540;5.854;2022-12-07T09:01:17;101444.81;;;5.54;94.41
75036;BME280;64247;51.540;5.854;2022-12-07T09:03:18;101442.88;;;5.93;93.61
75036;BME280;64247;51.540;5.854;2022-12-07T09:05:19;101441.63;;;6.51;91.86
75036;BME280;64247;51.540;5.854;2022-12-07T09:07:20;101444.22;;;7.12;89.23
75036;BME280;64247;51.540;5.854;2022-12-07T09:09:21;101436.91;;;7.26;87.49
75036;BME280;64247;51.540;5.854;2022-12-07T09:11:22;101443.78;;;7.33;86.97
75036;BME280;64247;51.540;5.854;2022-12-07T09:13:23;101444.41;;;7.66;85.24
75036;BME280;64247;51.540;5.854;2022-12-07T09:15:24;101449.50;;;7.90;83.58
75036;BME280;64247;51.540;5.854;2022-12-07T09:17:25;101440.53;;;7.81;83.35
75036;BME280;64247;51.540;5.854;2022-12-07T09:19:26;71600.94;;;-147.87;100.00
75036;BME280;64247;51.540;5.854;2022-12-07T09:21:26;71600.94;;;-147.87;100.00
75036;BME280;64247;51.540;5.854;2022-12-07T09:23:27;71600.94;;;-147.87;100.00
75036;BME280;64247;51.540;5.854;2022-12-07T09:25:28;71600.94;;;-147.87;100.00
75036;BME280;64247;51.540;5.854;2022-12-07T09:27:29;71600.94;;;-147.87;100.00
75036;BME280;64247;51.540;5.854;2022-12-07T09:29:29;71600.94;;;-147.87;100.00
75036;BME280;64247;51.540;5.854;2022-12-07T09:31:36;71600.94;;;-147.87;100.00
75036;BME280;64247;51.540;5.854;2022-12-07T09:33:36;71600.94;;;-147.87;100.00
75036;BME280;64247;51.540;5.854;2022-12-07T09:35:37;71600.94;;;-147.87;100.00
75036;BME280;64247;51.540;5.854;2022-12-07T09:37:38;71600.94;;;-147.87;100.00
75036;BME280;64247;51.540;5.854;2022-12-07T09:39:40;71600.94;;;-147.87;100.00
75036;BME280;64247;51.540;5.854;2022-12-07T09:41:43;71600.94;;;-147.87;100.00
75036;BME280;64247;51.540;5.854;2022-12-07T09:43:45;71600.94;;;-147.87;100.00
75036;BME280;64247;51.540;5.854;2022-12-07T09:45:48;71600.94;;;-147.87;100.00
75036;BME280;64247;51.540;5.854;2022-12-07T09:47:50;71600.94;;;-147.87;100.00
75036;BME280;64247;51.540;5.854;2022-12-07T09:49:54;71600.94;;;-147.87;100.00
75036;BME280;64247;51.540;5.854;2022-12-07T09:52:20;71600.94;;;-147.87;100.00
75036;BME280;64247;51.540;5.854;2022-12-07T09:54:26;71600.94;;;-147.87;100.00
75036;BME280;64247;51.540;5.854;2022-12-07T09:56:29;71600.94;;;-147.87;100.00
75036;BME280;64247;51.540;5.854;2022-12-07T09:58:34;71600.94;;;-147.87;100.00
75036;BME280;64247;51.540;5.854;2022-12-07T10:00:34;71600.94;;;-147.87;100.00
75036;BME280;64247;51.540;5.854;2022-12-07T10:02:41;71600.94;;;-147.87;100.00
75036;BME280;64247;51.540;5.854;2022-12-07T10:04:43;71600.94;;;-147.87;100.00
75036;BME280;64247;51.540;5.854;2022-12-07T10:06:45;71600.94;;;-147.87;100.00
75036;BME280;64247;51.540;5.854;2022-12-07T10:08:47;71600.94;;;-147.87;100.00
75036;BME280;64247;51.540;5.854;2022-12-07T10:10:53;71600.94;;;-147.87;100.00
75036;BME280;64247;51.540;5.854;2022-12-07T10:13:02;71600.94;;;-147.87;100.00
75036;BME280;64247;51.540;5.854;2022-12-07T10:15:04;71600.94;;;-147.87;100.00
75036;BME280;64247;51.540;5.854;2022-12-07T10:22:32;71600.94;;;-147.87;100.00
75036;BME280;64247;51.540;5.854;2022-12-07T10:24:32;71600.94;;;-147.87;100.00
75036;BME280;64247;51.540;5.854;2022-12-07T10:26:35;71600.94;;;-147.87;100.00
75036;BME280;64247;51.540;5.854;2022-12-07T10:28:36;71600.94;;;-147.87;100.00
75036;BME280;64247;51.540;5.854;2022-12-07T10:30:58;71600.94;;;-147.87;100.00
75036;BME280;64247;51.540;5.854;2022-12-07T10:33:00;71600.94;;;-147.87;100.00
75036;BME280;64247;51.540;5.854;2022-12-07T10:35:21;71600.94;;;-147.87;100.00
75036;BME280;64247;51.540;5.854;2022-12-07T10:37:22;71600.94;;;-147.87;100.00
75036;BME280;64247;51.540;5.854;2022-12-07T10:39:27;71600.94;;;-147.87;100.00
75036;BME280;64247;51.540;5.854;2022-12-07T10:41:28;71600.94;;;-147.87;100.00
75036;BME280;64247;51.540;5.854;2022-12-07T10:43:29;71600.94;;;-147.87;100.00
75036;BME280;64247;51.540;5.854;2022-12-07T10:45:31;71600.94;;;-147.87;100.00
75036;BME280;64247;51.540;5.854;2022-12-07T10:48:07;71600.94;;;-147.87;100.00
75036;BME280;64247;51.540;5.854;2022-12-07T10:50:47;71600.94;;;-147.87;100.00
75036;BME280;64247;51.540;5.854;2022-12-07T11:03:23;71600.94;;;-147.87;100.00
75036;BME280;64247;51.540;5.854;2022-12-07T11:04:28;71600.94;;;-147.87;100.00
75036;BME280;64247;51.540;5.854;2022-12-07T11:09:50;71600.94;;;-147.87;100.00
75036;BME280;64247;51.540;5.854;2022-12-07T11:17:18;71600.94;;;-147.87;100.00
75036;BME280;64247;51.540;5.854;2022-12-07T11:19:49;71600.94;;;-147.87;100.00
75036;BME280;64247;51.540;5.854;2022-12-07T11:22:09;71600.94;;;-147.87;100.00
75036;BME280;64247;51.540;5.854;2022-12-07T11:24:19;71600.94;;;-147.87;100.00
75036;BME280;64247;51.540;5.854;2022-12-07T11:32:58;101357.94;;;6.42;88.63
75036;BME280;64247;51.540;5.854;2022-12-07T11:38:25;101355.22;;;6.28;89.85
75036;BME280;64247;51.540;5.854;2022-12-07T11:40:36;101347.44;;;6.27;89.71
75036;BME280;64247;51.540;5.854;2022-12-07T11:42:44;101343.16;;;6.26;90.72
75036;BME280;64247;51.540;5.854;2022-12-07T11:45:13;101334.56;;;6.24;89.19
75036;BME280;64247;51.540;5.854;2022-12-07T11:49:54;101335.34;;;6.10;88.63
75036;BME280;64247;51.540;5.854;2022-12-07T11:52:06;101330.53;;;6.07;89.31
75036;BME280;64247;51.540;5.854;2022-12-07T11:54:30;101330.84;;;6.06;89.57
75036;BME280;64247;51.540;5.854;2022-12-07T11:56:35;101325.97;;;6.08;89.95
75036;BME280;64247;51.540;5.854;2022-12-07T12:04:50;101327.56;;;6.23;89.98
75036;BME280;64247;51.540;5.854;2022-12-07T12:06:56;101325.56;;;6.28;89.72
75036;BME280;64247;51.540;5.854;2022-12-07T12:09:29;101331.16;;;6.32;89.38
75036;BME280;64247;51.540;5.854;2022-12-07T12:15:45;101318.66;;;6.36;89.16